createdAt,value
2022-11-24T00:01:32.530Z,91.90
2022-11-24T00:04:07.877Z,91.93
2022-11-24T00:06:42.337Z,91.90
2022-11-24T00:09:11.373Z,91.78
2022-11-24T00:11:39.117Z,91.79
2022-11-24T00:14:07.319Z,91.75
2022-11-24T00:16:37.699Z,91.75
2022-11-24T00:19:11.999Z,91.81
2022-11-24T00:21:42.698Z,91.79
2022-11-24T00:24:11.850Z,92.07
2022-11-24T00:26:39.593Z,92.04
2022-11-24T00:29:09.389Z,92.13
2022-11-24T00:31:41.860Z,92.18
2022-11-24T00:34:14.106Z,92.25
2022-11-24T00:36:42.996Z,92.26
2022-11-24T00:39:15.642Z,92.22
2022-11-24T00:41:44.040Z,92.24
2022-11-24T00:44:11.561Z,92.23
2022-11-24T00:46:39.406Z,92.25
2022-11-24T00:49:07.445Z,92.14
2022-11-24T00:51:38.854Z,92.21
2022-11-24T00:54:10.421Z,92.04
2022-11-24T00:56:38.185Z,91.66
2022-11-24T00:59:06.139Z,91.73
2022-11-24T01:01:35.114Z,92.02
2022-11-24T01:04:04.125Z,92.02
2022-11-24T01:06:32.737Z,92.09
2022-11-24T01:09:00.402Z,92.12
2022-11-24T01:11:54.708Z,92.26
2022-11-24T01:14:25.159Z,92.26
2022-11-24T01:16:53.886Z,92.27
2022-11-24T01:19:23.108Z,92.29
2022-11-24T01:21:50.902Z,92.36
2022-11-24T01:24:23.818Z,92.35
2022-11-24T01:26:51.470Z,92.39
2022-11-24T01:29:20.067Z,92.42
2022-11-24T01:31:47.639Z,92.42
2022-11-24T01:34:16.063Z,92.40
2022-11-24T01:36:43.665Z,92.37
2022-11-24T01:39:12.078Z,92.43
2022-11-24T01:41:40.061Z,92.59
2022-11-24T01:44:26.877Z,92.58
2022-11-24T01:47:30.757Z,92.75
2022-11-24T01:50:02.010Z,92.82
2022-11-24T01:52:54.059Z,92.67
2022-11-24T01:55:28.560Z,92.87
2022-11-24T01:58:23.218Z,92.78
2022-11-24T02:00:52.847Z,92.76
2022-11-24T02:03:31.930Z,92.73
2022-11-24T02:06:02.671Z,92.76
2022-11-24T02:08:50.010Z,92.80
2022-11-24T02:11:19.333Z,92.87
2022-11-24T02:13:50.287Z,92.94
2022-11-24T02:16:21.680Z,93.04
2022-11-24T02:18:50.417Z,92.98
2022-11-24T02:21:19.872Z,92.91
2022-11-24T02:24:37.098Z,92.68
2022-11-24T02:27:05.154Z,92.53
2022-11-24T02:29:33.201Z,91.88
2022-11-24T02:32:06.365Z,91.71
2022-11-24T02:34:34.733Z,91.04
2022-11-24T02:37:02.531Z,90.69
2022-11-24T02:39:30.276Z,89.93
2022-11-24T02:42:05.191Z,89.91
2022-11-24T02:44:41.961Z,89.68
2022-11-24T02:47:12.992Z,90.17
2022-11-24T02:49:44.774Z,90.20
2022-11-24T02:52:12.606Z,90.31
2022-11-24T02:54:43.662Z,90.01
2022-11-24T02:57:12.490Z,90.19
2022-11-24T02:59:39.989Z,90.22
2022-11-24T03:02:08.294Z,90.27
2022-11-24T03:04:36.253Z,90.46
2022-11-24T03:07:05.280Z,90.70
2022-11-24T03:09:39.897Z,90.72
2022-11-24T03:12:07.837Z,90.50
2022-11-24T03:14:36.123Z,90.15
2022-11-24T03:17:04.336Z,90.02
2022-11-24T03:19:33.197Z,90.15
2022-11-24T03:22:01.821Z,89.91
2022-11-24T03:24:29.793Z,90.15
2022-11-24T03:26:58.572Z,90.29
2022-11-24T03:29:26.309Z,90.24
2022-11-24T03:31:53.930Z,90.37
2022-11-24T03:34:23.131Z,90.58
2022-11-24T03:36:51.063Z,90.66
2022-11-24T03:39:20.704Z,90.80
2022-11-24T03:41:51.425Z,90.66
2022-11-24T03:44:19.183Z,90.64
2022-11-24T03:46:46.931Z,90.73
2022-11-24T03:49:14.557Z,90.74
2022-11-24T03:51:42.236Z,90.58
2022-11-24T03:54:11.565Z,90.72
2022-11-24T03:56:40.294Z,90.53
2022-11-24T03:59:08.725Z,90.52
2022-11-24T04:01:38.123Z,90.68
2022-11-24T04:04:05.801Z,90.92
2022-11-24T04:06:36.366Z,90.99
2022-11-24T04:09:04.149Z,91.03
2022-11-24T04:11:50.445Z,91.03
2022-11-24T04:14:19.500Z,91.01
2022-11-24T04:16:48.259Z,90.90
2022-11-24T04:19:16.671Z,90.91
2022-11-24T04:21:44.233Z,90.88
2022-11-24T04:24:12.150Z,91.16
2022-11-24T04:26:39.764Z,91.33
2022-11-24T04:29:07.539Z,91.26
2022-11-24T04:31:35.115Z,91.06
2022-11-24T04:34:02.787Z,91.08
2022-11-24T04:36:31.686Z,91.27
2022-11-24T04:39:25.722Z,91.51
2022-11-24T04:41:48.436Z,91.87
2022-11-24T04:44:16.352Z,92.02
2022-11-24T04:46:44.083Z,91.78
2022-11-24T04:49:12.825Z,91.39
2022-11-24T04:51:41.702Z,90.97
2022-11-24T04:54:14.913Z,90.75
2022-11-24T04:56:44.055Z,90.46
2022-11-24T04:59:16.706Z,90.57
2022-11-24T05:01:46.953Z,90.62
2022-11-24T05:04:19.873Z,90.65
2022-11-24T05:06:48.328Z,90.70
2022-11-24T05:09:18.297Z,90.66
2022-11-24T05:11:46.986Z,90.79
2022-11-24T05:14:14.569Z,91.07
2022-11-24T05:16:44.785Z,91.23
2022-11-24T05:19:13.423Z,91.38
2022-11-24T05:21:42.003Z,91.37
2022-11-24T05:24:11.202Z,91.54
2022-11-24T05:26:39.746Z,91.58
2022-11-24T05:29:07.224Z,91.55
2022-11-24T05:31:34.895Z,91.61
2022-11-24T05:34:03.480Z,91.82
2022-11-24T05:36:52.902Z,91.92
2022-11-24T05:39:21.906Z,91.79
2022-11-24T05:41:49.595Z,91.86
2022-11-24T05:44:17.166Z,91.84
2022-11-24T05:46:46.127Z,91.70
2022-11-24T05:49:13.760Z,91.74
2022-11-24T05:51:42.816Z,91.98
2022-11-24T05:54:11.374Z,92.11
2022-11-24T05:56:39.278Z,92.23
2022-11-24T05:59:10.014Z,92.42
2022-11-24T06:01:38.948Z,92.56
2022-11-24T06:04:06.799Z,92.88
2022-11-24T06:06:34.483Z,92.81
2022-11-24T06:09:02.315Z,91.72
2022-11-24T06:11:29.910Z,90.85
2022-11-24T06:13:57.606Z,89.98
2022-11-24T06:16:25.462Z,89.47
2022-11-24T06:18:53.352Z,88.44
2022-11-24T06:21:21.035Z,87.43
2022-11-24T06:23:49.420Z,86.77
2022-11-24T06:26:18.674Z,86.38
2022-11-24T06:28:46.213Z,85.61
2022-11-24T06:31:13.881Z,85.93
2022-11-24T06:33:41.535Z,86.05
2022-11-24T06:36:14.812Z,85.77
2022-11-24T06:38:42.539Z,86.14
2022-11-24T06:41:15.866Z,86.13
2022-11-24T06:43:45.585Z,85.95
2022-11-24T06:46:19.790Z,85.71
2022-11-24T06:48:53.546Z,85.85
2022-11-24T06:51:21.270Z,85.82
2022-11-24T06:53:48.924Z,85.95
2022-11-24T06:56:21.720Z,85.81
2022-11-24T06:58:53.527Z,85.70
2022-11-24T07:01:28.008Z,85.85
2022-11-24T07:03:57.664Z,85.54
2022-11-24T07:06:27.037Z,85.53
2022-11-24T07:08:55.210Z,85.63
2022-11-24T07:11:24.945Z,84.85
2022-11-24T07:13:58.292Z,83.39
2022-11-24T07:16:28.612Z,83.56
2022-11-24T07:18:56.989Z,84.54
2022-11-24T07:21:26.506Z,83.99
2022-11-24T07:23:57.130Z,83.92
2022-11-24T07:26:25.985Z,82.79
2022-11-24T07:28:54.419Z,82.51
2022-11-24T07:31:30.692Z,82.65
2022-11-24T07:33:58.493Z,82.95
2022-11-24T07:36:28.002Z,82.91
2022-11-24T07:38:59.369Z,82.29
2022-11-24T07:41:27.256Z,82.77
2022-11-24T07:43:55.852Z,83.33
2022-11-24T07:46:23.311Z,83.38
2022-11-24T07:48:50.862Z,83.39
2022-11-24T07:51:19.226Z,83.26
2022-11-24T07:53:46.896Z,83.38
2022-11-24T07:56:14.679Z,83.21
2022-11-24T07:58:42.380Z,83.74
2022-11-24T08:01:18.029Z,83.57
2022-11-24T08:03:46.965Z,83.84
2022-11-24T08:06:27.200Z,82.45
2022-11-24T08:08:58.344Z,82.42
2022-11-24T08:11:27.063Z,82.43
2022-11-24T08:13:54.690Z,81.70
2022-11-24T08:16:22.569Z,80.41
2022-11-24T08:18:53.252Z,80.80
2022-11-24T08:21:25.376Z,80.29
2022-11-24T08:23:57.964Z,80.08
2022-11-24T08:26:27.676Z,79.03
2022-11-24T08:29:00.806Z,78.97
2022-11-24T08:31:38.348Z,78.19
2022-11-24T08:34:10.973Z,79.04
2022-11-24T08:36:38.970Z,77.64
2022-11-24T08:39:07.071Z,75.94
2022-11-24T08:41:34.803Z,74.79
2022-11-24T08:44:10.708Z,75.57
2022-11-24T08:46:38.868Z,76.22
2022-11-24T08:49:07.214Z,76.25
2022-11-24T08:51:35.285Z,76.07
2022-11-24T08:54:03.954Z,76.77
2022-11-24T08:56:34.721Z,76.88
2022-11-24T08:59:03.326Z,77.37
2022-11-24T09:01:38.246Z,77.10
2022-11-24T09:04:09.516Z,76.43
2022-11-24T09:06:38.349Z,76.54
2022-11-24T09:09:06.960Z,76.21
2022-11-24T09:11:35.135Z,74.75
2022-11-24T09:14:02.848Z,75.13
2022-11-24T09:16:31.443Z,74.49
2022-11-24T09:19:08.157Z,74.55
2022-11-24T09:21:39.283Z,73.86
2022-11-24T09:24:09.580Z,73.70
2022-11-24T09:26:43.035Z,73.80
2022-11-24T09:29:12.632Z,74.25
2022-11-24T09:31:40.763Z,73.13
2022-11-24T09:34:14.038Z,73.42
2022-11-24T09:36:43.008Z,72.86
2022-11-24T09:39:18.660Z,73.72
2022-11-24T09:42:05.826Z,73.72
2022-11-24T09:44:49.965Z,72.59
2022-11-24T09:47:56.798Z,70.96
2022-11-24T09:50:47.542Z,70.48
2022-11-24T09:53:41.874Z,70.37
2022-11-24T09:56:24.160Z,70.35
2022-11-24T09:59:02.917Z,69.52
2022-11-24T10:01:39.918Z,70.17
2022-11-24T10:04:29.687Z,70.06
2022-11-24T10:07:09.705Z,69.43
2022-11-24T10:10:27.135Z,67.73
2022-11-24T10:13:27.228Z,67.16
2022-11-24T10:16:57.428Z,64.81
2022-11-24T10:19:58.065Z,64.77
2022-11-24T10:23:15.125Z,65.33
2022-11-24T10:26:08.962Z,66.22
2022-11-24T10:28:45.397Z,65.97
2022-11-24T10:31:36.074Z,65.37
2022-11-24T10:34:28.902Z,65.61
2022-11-24T10:37:25.715Z,63.90
2022-11-24T10:40:55.937Z,64.73
2022-11-24T10:43:10.513Z,65.04
2022-11-24T10:45:39.929Z,65.15
2022-11-24T10:48:24.042Z,64.73
2022-11-24T10:51:01.116Z,65.24
2022-11-24T10:53:31.336Z,65.40
2022-11-24T10:56:05.900Z,65.03
2022-11-24T10:58:39.111Z,65.73
2022-11-24T11:01:14.986Z,65.16
2022-11-24T11:03:59.162Z,64.96
2022-11-24T11:06:31.253Z,63.77
2022-11-24T11:09:22.824Z,63.05
2022-11-24T11:11:53.946Z,63.70
2022-11-24T11:14:39.628Z,63.01
2022-11-24T11:17:36.480Z,62.23
2022-11-24T11:20:24.610Z,60.39
2022-11-24T11:22:52.332Z,60.83
2022-11-24T11:25:36.259Z,59.79
2022-11-24T11:28:29.999Z,61.30
2022-11-24T11:31:22.554Z,61.32
2022-11-24T11:34:30.499Z,59.77
2022-11-24T11:37:00.249Z,59.82
2022-11-24T11:39:37.906Z,60.07
2022-11-24T11:42:45.245Z,59.95
2022-11-24T11:45:35.982Z,58.65
2022-11-24T11:48:42.826Z,59.01
2022-11-24T11:51:45.008Z,59.32
2022-11-24T11:54:54.908Z,58.44
2022-11-24T11:57:34.639Z,55.60
2022-11-24T12:00:16.258Z,53.62
2022-11-24T12:03:14.780Z,53.26
2022-11-24T12:06:08.889Z,53.12
2022-11-24T12:09:21.555Z,52.53
2022-11-24T12:12:19.829Z,54.02
2022-11-24T12:15:22.912Z,54.39
2022-11-24T12:18:55.904Z,57.29
2022-11-24T12:21:26.169Z,57.23
2022-11-24T12:24:28.196Z,58.03
2022-11-24T12:27:12.025Z,59.11
2022-11-24T12:29:39.462Z,59.74
2022-11-24T12:32:38.893Z,59.00
2022-11-24T12:35:22.429Z,59.00
2022-11-24T12:38:20.503Z,59.11
2022-11-24T12:41:40.396Z,59.71
2022-11-24T12:44:30.346Z,59.65
2022-11-24T12:47:23.368Z,58.46
2022-11-24T12:50:08.986Z,58.44
2022-11-24T12:52:47.474Z,58.55
2022-11-24T12:55:22.184Z,57.84
2022-11-24T12:58:14.730Z,58.48
2022-11-24T13:01:15.984Z,57.46
2022-11-24T13:04:11.910Z,57.26
2022-11-24T13:07:11.437Z,57.28
2022-11-24T13:10:34.630Z,57.91
2022-11-24T13:13:13.371Z,57.81
2022-11-24T13:16:07.101Z,58.13
2022-11-24T13:18:59.762Z,58.46
2022-11-24T13:21:50.982Z,58.55
2022-11-24T13:24:19.544Z,58.70
2022-11-24T13:27:16.557Z,59.32
2022-11-24T13:29:46.829Z,58.61
2022-11-24T13:32:23.522Z,60.60
2022-11-24T13:34:54.889Z,59.99
2022-11-24T13:37:29.028Z,59.43
2022-11-24T13:40:20.731Z,59.80
2022-11-24T13:43:03.084Z,59.78
2022-11-24T13:45:40.069Z,58.99
2022-11-24T13:48:21.695Z,59.01
2022-11-24T13:50:56.934Z,58.79
2022-11-24T13:53:41.192Z,57.61
2022-11-24T13:56:15.114Z,58.09
2022-11-24T13:58:59.696Z,59.24
2022-11-24T14:01:32.564Z,59.86
2022-11-24T14:04:32.535Z,60.32
2022-11-24T14:07:13.606Z,61.29
2022-11-24T14:09:49.724Z,60.63
2022-11-24T14:12:26.733Z,61.10
2022-11-24T14:15:20.551Z,61.48
2022-11-24T14:17:48.291Z,61.95
2022-11-24T14:20:34.265Z,61.48
2022-11-24T14:23:01.912Z,62.90
2022-11-24T14:25:32.447Z,63.59
2022-11-24T14:28:01.070Z,64.34
2022-11-24T14:30:29.477Z,65.09
2022-11-24T14:33:00.457Z,66.00
2022-11-24T14:35:29.599Z,67.72
2022-11-24T14:37:57.817Z,66.21
2022-11-24T14:40:53.932Z,66.21
2022-11-24T14:43:30.503Z,67.28
2022-11-24T14:46:07.251Z,67.83
2022-11-24T14:48:46.815Z,68.21
2022-11-24T14:51:23.797Z,69.81
2022-11-24T14:53:55.278Z,69.81
2022-11-24T14:56:36.312Z,70.36
2022-11-24T14:59:21.580Z,70.75
2022-11-24T15:01:50.438Z,71.72
2022-11-24T15:05:01.129Z,71.85
2022-11-24T15:07:29.262Z,72.81
2022-11-24T15:10:00.805Z,72.68
2022-11-24T15:12:41.543Z,73.09
2022-11-24T15:15:15.158Z,73.78
2022-11-24T15:17:50.794Z,74.35
2022-11-24T15:20:43.417Z,74.65
2022-11-24T15:23:32.205Z,74.51
2022-11-24T15:26:02.608Z,76.05
2022-11-24T15:28:31.408Z,77.03
2022-11-24T15:31:14.464Z,77.61
2022-11-24T15:33:42.617Z,78.26
2022-11-24T15:36:12.331Z,78.11
2022-11-24T15:38:39.927Z,78.14
2022-11-24T15:41:19.993Z,78.08
2022-11-24T15:43:48.253Z,78.85
2022-11-24T15:46:16.381Z,79.28
2022-11-24T15:48:44.583Z,79.18
2022-11-24T15:51:15.052Z,79.69
2022-11-24T15:53:54.117Z,79.67
2022-11-24T15:56:32.173Z,79.76
2022-11-24T15:59:02.737Z,79.72
2022-11-24T16:01:33.135Z,80.06
2022-11-24T16:04:02.394Z,80.46
2022-11-24T16:06:30.436Z,80.79
2022-11-24T16:08:58.306Z,81.03
2022-11-24T16:11:27.581Z,81.55
2022-11-24T16:13:55.568Z,81.83
2022-11-24T16:16:25.330Z,82.06
2022-11-24T16:18:53.380Z,81.74
2022-11-24T16:21:20.969Z,81.47
2022-11-24T16:23:48.845Z,81.44
2022-11-24T16:26:17.202Z,81.63
2022-11-24T16:28:45.901Z,80.56
2022-11-24T16:31:16.782Z,79.65
2022-11-24T16:33:47.561Z,79.26
2022-11-24T16:36:16.561Z,78.12
2022-11-24T16:38:45.014Z,77.99
2022-11-24T16:41:13.024Z,77.00
2022-11-24T16:43:40.832Z,77.23
2022-11-24T16:46:16.201Z,77.18
2022-11-24T16:48:51.562Z,76.24
2022-11-24T16:51:22.536Z,76.13
2022-11-24T16:54:02.468Z,76.12
2022-11-24T16:56:31.626Z,76.13
2022-11-24T16:58:59.199Z,76.25
2022-11-24T17:01:27.023Z,75.88
2022-11-24T17:03:54.859Z,76.02
2022-11-24T17:06:22.607Z,76.06
2022-11-24T17:08:50.204Z,75.40
2022-11-24T17:11:24.361Z,75.04
2022-11-24T17:13:53.068Z,75.22
2022-11-24T17:16:23.505Z,75.50
2022-11-24T17:18:51.854Z,75.25
2022-11-24T17:21:25.645Z,76.11
2022-11-24T17:23:55.460Z,75.06
2022-11-24T17:26:24.512Z,75.50
2022-11-24T17:28:52.927Z,76.06
2022-11-24T17:31:33.309Z,75.57
2022-11-24T17:34:03.265Z,75.90
2022-11-24T17:36:33.736Z,75.26
2022-11-24T17:39:04.575Z,75.68
2022-11-24T17:41:33.965Z,75.75
2022-11-24T17:44:01.674Z,75.69
2022-11-24T17:46:30.955Z,76.04
2022-11-24T17:49:00.260Z,75.49
2022-11-24T17:51:27.898Z,75.72
2022-11-24T17:53:57.310Z,75.49
2022-11-24T17:56:27.987Z,74.87
2022-11-24T17:58:59.246Z,74.88
2022-11-24T18:01:30.205Z,75.08
2022-11-24T18:03:58.505Z,74.91
2022-11-24T18:06:28.572Z,75.16
2022-11-24T18:08:57.818Z,76.08
2022-11-24T18:11:31.895Z,75.17
2022-11-24T18:14:04.401Z,75.19
2022-11-24T18:16:34.880Z,74.45
2022-11-24T18:19:09.095Z,74.24
2022-11-24T18:21:40.187Z,75.78
2022-11-24T18:24:10.310Z,75.26
2022-11-24T18:26:41.921Z,75.07
2022-11-24T18:29:11.587Z,75.32
2022-11-24T18:31:39.737Z,75.56
2022-11-24T18:34:07.520Z,76.42
2022-11-24T18:36:35.926Z,76.06
2022-11-24T18:39:07.410Z,75.74
2022-11-24T18:41:35.891Z,75.42
2022-11-24T18:44:08.152Z,75.25
2022-11-24T18:46:37.495Z,75.65
2022-11-24T18:49:07.095Z,76.33
2022-11-24T18:51:35.553Z,77.16
2022-11-24T18:54:05.706Z,77.81
2022-11-24T18:56:33.650Z,77.84
2022-11-24T18:59:01.316Z,78.35
2022-11-24T19:01:29.832Z,78.23
2022-11-24T19:03:59.687Z,78.19
2022-11-24T19:06:34.484Z,78.90
2022-11-24T19:09:11.565Z,78.21
2022-11-24T19:11:42.036Z,78.49
2022-11-24T19:14:15.437Z,78.99
2022-11-24T19:16:44.226Z,79.21
2022-11-24T19:19:13.609Z,79.52
2022-11-24T19:21:41.716Z,78.43
2022-11-24T19:24:14.059Z,77.90
2022-11-24T19:26:43.645Z,78.05
2022-11-24T19:29:11.519Z,78.14
2022-11-24T19:31:39.834Z,78.40
2022-11-24T19:34:08.255Z,77.15
2022-11-24T19:36:36.416Z,77.10
2022-11-24T19:39:05.348Z,77.76
2022-11-24T19:41:33.798Z,78.08
2022-11-24T19:44:01.866Z,78.21
2022-11-24T19:46:30.209Z,77.13
2022-11-24T19:49:03.484Z,76.70
2022-11-24T19:51:34.732Z,77.00
2022-11-24T19:54:06.980Z,77.33
2022-11-24T19:56:37.501Z,77.82
2022-11-24T19:59:07.492Z,77.62
2022-11-24T20:01:40.674Z,77.88
2022-11-24T20:04:15.550Z,77.74
2022-11-24T20:06:46.693Z,78.12
2022-11-24T20:09:17.509Z,78.49
2022-11-24T20:11:45.940Z,78.57
2022-11-24T20:14:18.442Z,78.85
2022-11-24T20:16:47.775Z,78.56
2022-11-24T20:19:17.512Z,78.02
2022-11-24T20:21:47.837Z,78.00
2022-11-24T20:24:24.709Z,78.19
2022-11-24T20:26:58.197Z,78.16
2022-11-24T20:29:28.414Z,78.51
2022-11-24T20:31:56.671Z,78.62
2022-11-24T20:34:26.499Z,78.83
2022-11-24T20:36:54.753Z,79.60
2022-11-24T20:39:27.734Z,80.48
2022-11-24T20:41:56.349Z,80.04
2022-11-24T20:44:26.613Z,79.32
2022-11-24T20:46:57.371Z,79.94
2022-11-24T20:49:25.987Z,79.90
2022-11-24T20:51:57.367Z,78.90
2022-11-24T20:54:25.528Z,79.17
2022-11-24T20:56:53.167Z,79.01
2022-11-24T20:59:24.300Z,79.25
2022-11-24T21:01:55.352Z,78.19
2022-11-24T21:04:27.383Z,78.27
2022-11-24T21:06:55.716Z,78.28
2022-11-24T21:09:23.350Z,78.56
2022-11-24T21:11:50.928Z,78.85
2022-11-24T21:14:18.527Z,78.81
2022-11-24T21:16:46.357Z,78.43
2022-11-24T21:19:17.803Z,78.15
2022-11-24T21:21:47.552Z,78.13
2022-11-24T21:24:21.501Z,78.23
2022-11-24T21:26:51.185Z,78.28
2022-11-24T21:29:22.126Z,78.13
2022-11-24T21:31:49.854Z,78.27
2022-11-24T21:34:19.452Z,78.52
2022-11-24T21:36:47.572Z,78.17
2022-11-24T21:39:15.829Z,78.00
2022-11-24T21:41:43.898Z,78.15
2022-11-24T21:44:15.238Z,78.35
2022-11-24T21:46:48.260Z,78.25
2022-11-24T21:49:20.062Z,78.20
2022-11-24T21:51:47.785Z,78.03
2022-11-24T21:54:16.036Z,78.26
2022-11-24T21:56:44.671Z,78.39
2022-11-24T21:59:13.780Z,78.86
2022-11-24T22:01:41.505Z,79.16
2022-11-24T22:04:09.736Z,78.45
2022-11-24T22:06:37.453Z,78.45
2022-11-24T22:09:05.413Z,78.06
2022-11-24T22:11:33.041Z,78.33
2022-11-24T22:14:02.012Z,78.10
2022-11-24T22:16:29.960Z,78.28
2022-11-24T22:19:00.458Z,78.12
2022-11-24T22:21:30.789Z,77.60
2022-11-24T22:24:01.361Z,78.12
2022-11-24T22:26:31.640Z,77.66
2022-11-24T22:28:59.358Z,78.06
2022-11-24T22:31:30.964Z,77.49
2022-11-24T22:34:00.963Z,77.56
2022-11-24T22:36:30.537Z,77.22
2022-11-24T22:39:05.691Z,77.38
2022-11-24T22:41:35.357Z,78.39
2022-11-24T22:44:06.550Z,78.62
2022-11-24T22:46:34.304Z,78.36
2022-11-24T22:49:02.555Z,78.20
2022-11-24T22:51:34.066Z,78.07
2022-11-24T22:54:04.447Z,77.32
2022-11-24T22:56:37.585Z,77.71
2022-11-24T22:59:05.435Z,78.05
2022-11-24T23:01:33.980Z,77.74
2022-11-24T23:04:09.725Z,77.73
2022-11-24T23:06:37.332Z,77.34
2022-11-24T23:09:06.364Z,77.20
2022-11-24T23:11:42.681Z,76.54
2022-11-24T23:14:16.557Z,76.70
2022-11-24T23:16:44.522Z,76.25
2022-11-24T23:19:12.374Z,75.35
2022-11-24T23:21:40.377Z,76.72
2022-11-24T23:24:10.520Z,75.68
2022-11-24T23:26:41.091Z,76.12
2022-11-24T23:29:10.726Z,76.13
2022-11-24T23:31:40.632Z,75.93
2022-11-24T23:34:08.900Z,75.91
2022-11-24T23:36:36.606Z,75.35
2022-11-24T23:39:08.595Z,75.14
2022-11-24T23:41:37.089Z,75.38
2022-11-24T23:44:04.803Z,74.25
2022-11-24T23:46:32.251Z,74.73
2022-11-24T23:49:00.183Z,74.37
2022-11-24T23:51:33.443Z,73.31
2022-11-24T23:54:01.590Z,72.86
2022-11-24T23:56:32.950Z,73.13
2022-11-24T23:59:04.924Z,72.85
